KBVI

Beaver County Airport

Beaver Falls, Pennsylvania, USA
METAR KBVI 162147Z 25003KT 7SM SCT004 BKN010 OVC017 05/04 A2996 RMK LAST
Observed Flight Rules
Dec-16 @ 21:47 UTC (3 hours ago) Marginal Visual Flight Rules
Wind Visibility Clouds
250° at 3 knots 7 miles
  • Scattered at 400' AGL
  • Broken at 1,000' AGL
  • Overcast at 1,700' AGL
Temperatures Readings
Current 5°C / 41°F
Dewpoint 4°C / 39°F
Humidity 93%
Altimeter 29.96" Hg
Pressure 1015 hPa
Elevation 382
METAR KBVI 162147Z 25003KT 7SM SCT004 BKN010 OVC017 05/04 A2996 RMK LAST
Observed Flight Rules
Dec-16 @ 21:47 UTC
(3 hours ago)
MVFR
Wind Visibility
250° at 3 knots 7 miles
Clouds
  • Scattered at 400' AGL
  • Broken at 1,000' AGL
  • Overcast at 1,700' AGL
Temperature Dewpoint
5°C / 41°F 4°C / 39°F
Humidity Altimeter Pressure
93% 29.96" Hg 1015 hPa